Time;durP1;ratioP1;P1;durP2;ratioP2;P2;SDS_P1;SDS_P2;PMS_P1;PMS_P2;Temp;Humidity;BMP_temperature;BMP_pressure;BME280_temperature;BME280_humidity;BME280_pressure;Samples;Min_cycle;Max_cycle;Signal;HPM_P1;HPM_P2
2022/05/13 14:51:28;;;;;;;5.33;1.13;;;21.90;79.70;;;21.52;37.71;101565.91;6111964;22;1338029;-78
2022/05/13 14:53:59;;;;;;;5.50;1.33;;;21.80;79.90;;;21.41;36.78;101553.22;6096237;23;99280;-75
2022/05/13 14:56:28;;;;;;;6.80;1.67;;;21.70;79.00;;;21.36;38.73;101555.34;6099956;23;97207;-74
2022/05/13 14:59:02;;;;;;;5.27;1.37;;;21.60;81.50;;;21.26;37.21;101555.09;6049666;23;97118;-76
2022/05/13 15:01:36;;;;;;;6.13;1.30;;;21.50;79.30;;;21.17;38.56;101552.13;6099597;23;96972;-74
2022/05/13 15:04:32;;;;;;;4.03;1.17;;;21.40;80.60;;;21.09;38.22;101550.81;6069085;23;99355;-74
2022/05/13 15:07:19;;;;;;;3.10;1.20;;;21.30;81.60;;;20.99;39.01;101552.38;6048408;23;97253;-75
2022/05/13 15:09:46;;;;;;;4.03;1.13;;;21.20;80.90;;;20.90;39.66;101549.44;6051941;23;96631;-74
2022/05/13 15:12:13;;;;;;;4.47;1.20;;;21.10;82.60;;;21.03;39.07;101553.91;6049842;23;96713;-74
2022/05/13 15:14:39;;;;;;;5.47;1.70;;;21.20;82.30;;;20.96;38.58;101546.34;6101659;23;99129;-74
2022/05/13 15:17:13;;;;;;;5.37;1.10;;;21.10;81.30;;;20.93;38.29;101551.91;6051017;23;97289;-75
2022/05/13 15:19:39;;;;;;;3.67;1.30;;;21.10;81.70;;;20.88;38.12;101546.00;6103765;23;96794;-74
2022/05/13 15:22:15;;;;;;;7.63;1.90;;;21.10;81.00;;;20.85;38.43;101552.41;6051514;23;96726;-74
2022/05/13 15:24:44;;;;;;;6.13;1.57;;;21.00;81.20;;;20.82;37.96;101544.56;6054804;23;96912;-74
2022/05/13 15:27:14;;;;;;;5.53;1.10;;;21.00;80.50;;;20.77;38.33;101549.34;6098022;23;97559;-74
2022/05/13 15:29:42;;;;;;;6.00;1.47;;;21.00;80.90;;;20.73;38.94;101550.53;6101621;23;96990;-75
2022/05/13 15:32:12;;;;;;;2.83;0.90;;;20.90;81.50;;;20.73;38.86;101547.84;6048329;23;98708;-75
2022/05/13 15:34:39;;;;;;;4.00;1.40;;;20.90;81.60;;;20.82;39.76;101546.38;6102652;23;101655;-75
2022/05/13 15:37:07;;;;;;;5.93;1.60;;;20.90;83.10;;;20.75;38.68;101541.41;6049792;23;98312;-75
2022/05/13 15:39:33;;;;;;;2.47;0.90;;;20.90;81.70;;;20.73;39.65;101543.34;6052843;23;96867;-75
2022/05/13 15:42:03;;;;;;;4.43;1.40;;;20.90;83.20;;;20.77;39.34;101544.00;6050757;23;96933;-75
2022/05/13 15:44:30;;;;;;;6.07;1.30;;;20.90;82.90;;;20.78;38.56;101543.03;6052483;23;97129;-75
2022/05/13 15:46:56;;;;;;;4.50;1.40;;;20.90;81.80;;;20.73;39.01;101531.75;6098939;23;96968;-75
2022/05/13 15:54:52;;;;;;;3.53;1.00;;;20.90;82.00;;;20.66;39.48;101542.00;6072835;23;96898;-74
2022/05/13 15:57:29;;;;;;;6.93;1.93;;;20.90;82.70;;;20.62;40.26;101540.47;6048514;23;106721;-75
2022/05/13 15:59:55;;;;;;;3.67;1.30;;;20.80;83.10;;;20.61;39.51;101543.25;6019347;23;96673;-75
2022/05/13 16:02:21;;;;;;;3.33;1.20;;;20.80;82.60;;;20.59;40.12;101545.19;6042768;23;97333;-75
2022/05/13 16:04:47;;;;;;;3.60;1.20;;;20.80;83.80;;;20.60;39.20;101545.09;6041786;23;126880;-75
2022/05/13 16:07:12;;;;;;;5.90;1.80;;;20.80;82.90;;;20.62;40.56;101540.47;6012698;23;103986;-75
2022/05/13 16:09:38;;;;;;;3.93;1.57;;;20.80;84.30;;;20.64;39.20;101543.06;6042591;23;96977;-75
2022/05/13 16:12:05;;;;;;;5.20;2.17;;;20.80;82.80;;;20.63;38.63;101544.00;6039619;23;97331;-75
2022/05/13 16:14:32;;;;;;;4.80;1.40;;;20.80;81.70;;;20.62;40.46;101542.31;6017059;23;97391;-75
2022/05/13 16:17:06;;;;;;;2.97;1.63;;;20.80;84.00;;;20.64;39.58;101535.88;6037404;23;115807;-76
2022/05/13 16:19:32;;;;;;;5.93;1.87;;;20.80;83.10;;;20.61;39.57;101537.91;6016358;23;97086;-75
2022/05/13 16:22:05;;;;;;;6.97;1.70;;;20.80;83.30;;;20.66;39.54;101541.13;6014548;23;96789;-75
2022/05/13 16:24:35;;;;;;;7.27;1.70;;;20.80;83.60;;;20.66;39.66;101536.63;6039523;23;97889;-74
2022/05/13 16:27:02;;;;;;;4.17;1.70;;;20.80;83.90;;;20.62;39.65;101534.25;6009588;23;97517;-74
2022/05/13 16:29:28;;;;;;;5.53;2.00;;;20.80;83.20;;;20.60;39.12;101534.34;6011047;23;99418;-74
2022/05/13 16:31:54;;;;;;;5.10;1.70;;;20.80;82.90;;;20.60;39.64;101538.84;6035673;23;98085;-75
2022/05/13 16:34:20;;;;;;;3.27;1.43;;;20.80;83.00;;;20.57;39.48;101541.75;6010908;23;124932;-74
2022/05/13 16:39:30;;;;;;;4.17;1.90;;;20.80;83.50;;;20.65;39.81;101534.06;6036903;23;96938;-74
2022/05/13 16:41:56;;;;;;;5.23;1.70;;;20.80;83.70;;;20.67;39.39;101532.13;5999342;23;113111;-75
2022/05/13 16:44:22;;;;;;;5.63;2.00;;;20.80;83.30;;;20.65;39.70;101542.09;6012303;23;103503;-74
2022/05/13 16:46:48;;;;;;;6.37;1.77;;;20.80;83.50;;;20.57;39.78;101536.38;6037689;23;97280;-74
2022/05/13 16:49:14;;;;;;;6.27;2.17;;;20.70;83.80;;;20.60;38.85;101538.84;6051764;23;97374;-73
2022/05/13 16:51:43;;;;;;;4.60;2.07;;;20.80;82.40;;;20.62;39.30;101539.63;6039848;23;96832;-73
2022/05/13 16:54:09;;;;;;;5.27;2.77;;;20.80;82.50;;;20.59;39.60;101537.13;6009641;23;97703;-73
2022/05/13 16:56:40;;;;;;;8.03;2.60;;;20.80;83.40;;;20.63;39.40;101536.84;6061480;23;97026;-73
2022/05/13 16:59:08;;;;;;;7.50;2.20;;;20.80;83.10;;;20.64;40.17;101537.69;6036467;23;96671;-73
2022/05/13 17:01:37;;;;;;;3.97;2.20;;;20.80;84.20;;;20.61;39.98;101543.25;5988196;23;100928;-73
2022/05/13 17:04:09;;;;;;;5.73;2.40;;;20.80;83.80;;;20.64;39.63;101545.75;6032819;23;97335;-73
2022/05/13 17:06:35;;;;;;;4.77;2.20;;;20.80;83.60;;;20.65;40.64;101550.13;6038477;23;96826;-72
2022/05/13 17:17:14;;;;;;;7.43;2.20;;;20.80;84.10;;;20.67;40.18;101543.72;6065570;23;96618;-74
2022/05/13 17:19:43;;;;;;;4.00;2.00;;;20.80;84.30;;;20.68;40.97;101547.25;6073955;23;110375;-74
2022/05/13 17:22:09;;;;;;;5.40;2.27;;;20.80;85.80;;;20.67;40.36;101553.56;6048142;23;98728;-74
2022/05/13 17:24:40;;;;;;;7.30;2.40;;;20.80;85.00;;;20.65;40.44;101556.34;6025588;23;97387;-74
2022/05/13 17:27:24;;;;;;;7.13;2.20;;;20.80;85.60;;;20.64;40.00;101543.06;6047806;23;97019;-74
2022/05/13 17:29:50;;;;;;;7.40;2.23;;;20.80;84.30;;;20.61;40.11;101548.63;6048414;23;97992;-74
2022/05/13 17:32:19;;;;;;;5.80;2.13;;;20.70;84.00;;;20.61;39.88;101548.63;6009480;23;97321;-74
2022/05/13 17:34:46;;;;;;;6.67;2.20;;;20.70;84.20;;;20.58;40.50;101554.19;6037240;23;96690;-74
2022/05/13 17:37:28;;;;;;;7.80;2.67;;;20.70;84.90;;;20.59;40.73;101558.59;6007395;23;97069;-74
2022/05/13 17:39:57;;;;;;;5.67;2.10;;;20.70;85.40;;;20.59;41.23;101558.59;6009649;23;97453;-75
2022/05/13 17:42:23;;;;;;;7.20;2.40;;;20.70;86.00;;;20.62;40.11;101561.06;6014535;23;96734;-74
2022/05/13 17:44:49;;;;;;;4.77;2.00;;;20.70;84.80;;;20.58;41.17;101551.50;6040214;23;97858;-74
2022/05/13 17:47:14;;;;;;;5.67;1.80;;;20.70;85.80;;;20.52;41.45;101549.19;6037507;23;118212;-74
2022/05/13 17:49:40;;;;;;;3.33;2.07;;;20.70;85.90;;;20.49;41.00;101551.13;6041265;23;96552;-74
2022/05/13 17:52:10;;;;;;;3.83;2.07;;;20.70;85.70;;;20.47;40.78;101553.03;6068565;23;96829;-74
2022/05/13 17:54:36;;;;;;;5.00;1.93;;;20.60;85.60;;;20.47;40.93;101553.03;6041337;23;97508;-74
2022/05/13 17:57:03;;;;;;;5.60;2.40;;;20.60;85.60;;;20.45;41.47;101560.31;6083711;23;106141;-74
2022/05/13 17:59:28;;;;;;;5.80;2.50;;;20.60;86.30;;;20.44;41.13;101547.00;6060405;23;98181;-73
2022/05/13 18:01:54;;;;;;;5.70;2.20;;;20.60;85.80;;;20.43;40.90;101556.88;6034343;23;111285;-75
2022/05/13 18:04:21;;;;;;;4.77;2.10;;;20.60;85.60;;;20.39;41.52;101549.91;6035377;23;100986;-73
2022/05/13 18:06:48;;;;;;;6.03;2.50;;;20.50;86.50;;;20.37;41.23;101557.19;6086643;23;97190;-73
2022/05/13 18:09:14;;;;;;;9.80;2.20;;;20.50;86.00;;;20.37;41.15;101551.84;6033265;23;96951;-73
2022/05/13 18:11:42;;;;;;;7.03;2.40;;;20.50;85.60;;;20.36;41.52;101555.47;6037045;23;110877;-73
2022/05/13 18:14:08;;;;;;;5.23;1.87;;;20.50;87.30;;;20.40;41.43;101557.03;6081837;23;97698;-73
2022/05/13 18:16:35;;;;;;;3.57;1.80;;;20.50;86.70;;;20.34;42.15;101551.19;6061322;23;98387;-73
2022/05/13 18:19:01;;;;;;;5.43;1.60;;;20.50;87.10;;;20.29;41.71;101558.66;6035588;23;96617;-73
2022/05/13 18:21:27;;;;;;;3.27;1.70;;;20.40;87.00;;;20.30;41.63;101561.22;6039973;23;96652;-73
2022/05/13 18:23:56;;;;;;;6.70;2.10;;;20.40;86.90;;;20.29;41.78;101548.78;6084781;23;97357;-73
2022/05/13 18:26:26;;;;;;;3.83;1.50;;;20.40;87.00;;;20.27;42.10;101558.75;6080427;22;99530;-72
2022/05/13 18:28:52;;;;;;;6.67;1.90;;;20.40;87.30;;;20.27;41.85;101561.44;6041579;22;96748;-72
2022/05/13 18:31:20;;;;;;;5.90;2.10;;;20.40;87.50;;;20.25;41.73;101557.97;6008679;23;97473;-72
2022/05/13 18:33:46;;;;;;;5.43;1.73;;;20.40;87.10;;;20.29;42.16;101556.84;6041067;22;97936;-72
2022/05/13 18:36:12;;;;;;;3.97;1.93;;;20.40;87.60;;;20.24;41.83;101560.72;6084038;22;97277;-72
2022/05/13 18:38:37;;;;;;;4.67;1.90;;;20.40;87.30;;;20.26;42.56;101554.34;6087135;22;108367;-72
2022/05/13 18:46:39;;;;;;;4.60;1.80;;;20.40;87.70;;;20.24;42.16;101569.63;6075819;22;102033;-71
2022/05/13 18:49:07;;;;;;;7.70;3.07;;;20.30;88.00;;;20.27;42.24;101572.16;6035556;22;97518;-72
2022/05/13 18:51:33;;;;;;;8.37;3.97;;;20.40;88.00;;;20.32;42.20;101570.03;6049228;22;97267;-72
2022/05/13 18:53:59;;;;;;;5.13;2.20;;;20.40;88.30;;;20.27;42.09;101574.81;6064611;22;116945;-72
2022/05/13 18:56:30;;;;;;;5.63;2.60;;;20.40;87.70;;;20.26;42.42;101575.78;6093276;22;97357;-72
2022/05/13 18:58:57;;;;;;;7.07;2.10;;;20.40;88.00;;;20.17;42.26;101576.34;6041128;22;96824;-72
2022/05/13 19:01:24;;;;;;;6.20;2.40;;;20.30;88.10;;;20.26;43.07;101573.09;6091501;22;97086;-72
2022/05/13 19:03:50;;;;;;;5.80;2.00;;;20.30;89.30;;;20.28;43.26;101573.88;6075623;22;97071;-71
2022/05/13 19:06:19;;;;;;;3.30;1.40;;;20.30;89.50;;;20.29;42.78;101577.41;6064689;22;98150;-72
2022/05/13 19:08:46;;;;;;;8.00;2.63;;;20.30;88.90;;;20.30;43.12;101582.66;6068149;22;96664;-72
2022/05/13 19:11:14;;;;;;;8.30;2.50;;;20.30;89.20;;;20.33;43.17;101582.47;6087412;22;96736;-72
2022/05/13 19:13:41;;;;;;;5.57;1.80;;;20.40;89.80;;;20.37;42.52;101583.13;6041674;23;97565;-72
2022/05/13 19:16:10;;;;;;;7.80;2.80;;;20.40;89.40;;;20.38;43.26;101579.50;6038756;22;98153;-72
2022/05/13 19:18:38;;;;;;;7.00;3.57;;;20.40;89.80;;;20.39;42.93;101592.78;6069911;22;97027;-72
2022/05/13 19:21:04;;;;;;;8.33;2.87;;;20.40;89.50;;;20.38;43.18;101590.22;6066811;22;96834;-72
2022/05/13 19:23:31;;;;;;;7.67;2.33;;;20.40;89.50;;;20.33;42.35;101587.81;6069288;22;97013;-72
2022/05/13 19:26:03;;;;;;;6.87;2.93;;;20.40;89.00;;;20.31;42.96;101594.25;6065552;22;96835;-72
2022/05/13 19:28:31;;;;;;;8.47;2.33;;;20.30;89.00;;;20.28;42.91;101600.66;6046462;23;98992;-72
2022/05/13 19:30:58;;;;;;;3.97;2.27;;;20.30;89.50;;;20.29;42.81;101602.38;6067564;22;97085;-72
2022/05/13 19:33:26;;;;;;;6.37;2.90;;;20.30;89.80;;;20.26;42.54;101602.56;6071477;22;97686;-72
2022/05/13 19:35:53;;;;;;;5.80;2.20;;;20.30;89.10;;;20.26;42.58;101602.56;6070816;22;97498;-72
2022/05/13 19:38:18;;;;;;;4.80;1.70;;;20.30;89.30;;;20.25;42.65;101599.97;6066368;23;96756;-72
2022/05/13 19:40:45;;;;;;;2.93;1.90;;;20.30;89.00;;;20.21;43.09;101604.66;6070739;22;96603;-72
2022/05/13 19:43:15;;;;;;;5.87;2.67;;;20.20;89.80;;;20.26;42.85;101602.56;6040588;22;96949;-72
2022/05/13 19:45:42;;;;;;;3.87;1.70;;;20.30;89.50;;;20.27;43.52;101609.66;6070564;22;97325;-72
2022/05/13 19:48:09;;;;;;;2.23;1.50;;;20.30;90.20;;;20.29;43.59;101610.41;6088633;22;98473;-72
2022/05/13 19:50:37;;;;;;;3.83;1.93;;;20.30;90.20;;;20.31;43.43;101607.63;6072188;22;97336;-72
2022/05/13 19:53:03;;;;;;;2.50;1.30;;;20.30;90.00;;;20.31;43.48;101611.19;6089304;22;98738;-72
2022/05/13 19:55:29;;;;;;;4.43;1.90;;;20.30;90.00;;;20.32;43.10;101612.91;6069273;22;97487;-72
2022/05/13 19:57:55;;;;;;;3.80;2.10;;;20.30;89.90;;;20.31;43.40;101613.84;6068328;22;96819;-73
2022/05/13 20:00:27;;;;;;;2.83;1.87;;;20.30;90.10;;;20.35;43.53;101617.22;6094433;22;97180;-72
2022/05/13 20:02:53;;;;;;;5.97;2.10;;;20.40;90.30;;;20.35;43.50;101612.72;6093347;22;97341;-72
2022/05/13 20:10:59;;;;;;;2.33;1.70;;;20.40;90.10;;;20.38;43.32;101617.88;6070647;22;98039;-72
2022/05/13 20:13:28;;;;;;;3.10;1.47;;;20.40;90.30;;;20.39;43.36;101618.72;6039597;23;101730;-72
2022/05/13 20:15:58;;;;;;;21.03;14.93;;;20.40;90.30;;;20.42;43.33;101624.81;6090824;22;98260;-75
2022/05/13 20:18:28;;;;;;;3.03;1.77;;;20.40;90.20;;;20.44;43.36;101622.91;6016610;23;99095;-72
2022/05/13 20:23:40;;;;;;;1.53;1.37;;;20.50;90.30;;;20.45;43.55;101627.31;6046543;23;101334;-72
2022/05/13 20:26:27;;;;;;;2.57;1.77;;;20.40;90.30;;;20.46;43.59;101629.03;6039814;22;97550;-72
2022/05/13 20:28:56;;;;;;;1.67;1.40;;;20.40;90.30;;;20.44;43.48;101625.59;6094563;22;96844;-72
2022/05/13 20:31:26;;;;;;;1.33;1.23;;;20.40;90.40;;;20.44;43.52;101630.94;6040662;23;97168;-72
2022/05/13 20:33:52;;;;;;;4.50;2.10;;;20.40;90.50;;;20.43;43.53;101639.09;6020714;23;99032;-72
2022/05/13 20:36:19;;;;;;;2.17;1.40;;;20.40;90.60;;;20.41;43.74;101632.94;6087745;22;127014;-72
2022/05/13 20:38:45;;;;;;;2.47;1.67;;;20.40;90.60;;;20.38;43.78;101633.94;6093559;22;96837;-72
2022/05/13 20:41:12;;;;;;;2.53;1.80;;;20.30;90.60;;;20.39;43.86;101635.66;6089205;22;96710;-72
2022/05/13 20:43:38;;;;;;;2.97;1.87;;;20.30;90.70;;;20.40;43.77;101636.56;6068852;22;120145;-72
2022/05/13 20:46:08;;;;;;;2.40;1.50;;;20.30;90.60;;;20.39;43.67;101630.31;6067462;22;97266;-73
2022/05/13 20:48:34;;;;;;;3.17;1.83;;;20.30;90.70;;;20.39;43.94;101635.66;6069785;23;97112;-73
2022/05/13 20:51:00;;;;;;;3.90;1.80;;;20.30;90.70;;;20.39;43.99;101635.66;6066226;22;96902;-73
2022/05/13 20:53:27;;;;;;;2.23;1.60;;;20.30;90.70;;;20.38;43.99;101636.63;6093570;22;97930;-73
2022/05/13 20:55:53;;;;;;;2.87;1.87;;;20.30;90.70;;;20.38;43.96;101639.31;6071212;22;96928;-73
2022/05/13 20:58:19;;;;;;;2.33;1.80;;;20.30;90.70;;;20.37;43.99;101632.22;6065708;22;117348;-73
2022/05/13 21:00:44;;;;;;;3.17;2.03;;;20.30;90.70;;;20.36;44.11;101635.88;6042583;23;112597;-73
2022/05/13 21:03:11;;;;;;;2.83;2.07;;;20.30;90.80;;;20.35;43.83;101639.50;6065223;22;122941;-73
2022/05/13 21:05:42;;;;;;;2.80;1.83;;;20.30;90.80;;;20.34;43.92;101637.78;6093317;22;96653;-73
2022/05/13 21:08:15;;;;;;;3.80;2.13;;;20.30;90.90;;;20.32;44.15;101645.06;6041683;22;98343;-73
2022/05/13 21:10:42;;;;;;;2.80;1.90;;;20.30;90.90;;;20.30;44.10;101646.97;6045738;23;96859;-74
2022/05/13 21:13:08;;;;;;;3.30;2.20;;;20.20;90.90;;;20.30;44.31;101641.59;6039153;22;98207;-73
2022/05/13 21:15:35;;;;;;;3.80;2.20;;;20.20;91.00;;;20.29;44.07;101652.44;6093131;22;97322;-73
2022/05/13 21:18:04;;;;;;;2.23;2.03;;;20.20;91.00;;;20.27;44.21;101644.47;6089007;22;97147;-73
2022/05/13 21:20:31;;;;;;;2.37;2.17;;;20.20;91.10;;;20.27;44.07;101640.94;6093560;22;96999;-73
2022/05/13 21:22:58;;;;;;;2.13;1.90;;;20.20;91.20;;;20.26;44.02;101644.56;6039000;22;99573;-74
2022/05/13 21:25:24;;;;;;;2.23;1.80;;;20.20;91.10;;;20.25;44.47;101646.38;6092967;22;97108;-73
2022/05/13 21:27:51;;;;;;;2.50;2.00;;;20.20;91.10;;;20.26;44.37;101645.44;6072329;22;99555;-73
2022/05/13 21:30:19;;;;;;;3.20;2.27;;;20.10;91.00;;;20.24;44.55;101646.47;6090321;22;97492;-73
2022/05/13 21:38:14;;;;;;;2.03;1.83;;;20.10;91.30;;;20.18;44.55;101645.03;6065682;22;97048;-73
2022/05/13 21:40:40;;;;;;;3.00;2.13;;;20.10;91.30;;;20.17;44.52;101640.63;6093675;22;97199;-73
2022/05/13 21:43:06;;;;;;;2.87;2.03;;;20.10;91.30;;;20.14;44.56;101632.78;6064798;22;97036;-73
2022/05/13 21:45:32;;;;;;;2.60;2.20;;;20.00;91.50;;;20.14;44.77;101646.19;6069380;22;97349;-73
2022/05/13 21:47:59;;;;;;;3.07;2.03;;;20.00;91.50;;;20.10;44.81;101640.13;6088737;22;97025;-73
2022/05/13 21:50:27;;;;;;;2.10;1.83;;;20.00;91.60;;;20.08;44.77;101641.16;6069741;22;97382;-73
2022/05/13 21:52:52;;;;;;;4.00;2.30;;;19.90;91.70;;;20.06;44.98;101638.59;6042677;23;97264;-73
2022/05/13 21:55:19;;;;;;;4.60;2.67;;;19.90;91.80;;;20.04;45.07;101640.50;6086819;22;97297;-73
2022/05/13 21:57:45;;;;;;;3.10;2.10;;;19.90;91.80;;;20.01;44.98;101642.50;6068586;22;96651;-73
2022/05/13 22:00:38;;;;;;;3.33;1.73;;;19.80;92.00;;;20.01;45.14;101645.19;6065618;22;97055;-73
2022/05/13 22:03:10;;;;;;;2.40;1.90;;;19.80;92.00;;;19.99;44.90;101644.41;6035474;23;100130;-73
2022/05/13 22:05:38;;;;;;;3.67;2.23;;;19.80;92.00;;;19.99;44.97;101641.75;6067932;22;100282;-73
2022/05/13 22:08:05;;;;;;;3.07;2.37;;;19.80;91.90;;;19.98;45.08;101640.00;6038382;22;98069;-73
2022/05/13 22:10:31;;;;;;;2.60;2.20;;;19.80;91.90;;;19.98;45.00;101627.50;6068602;22;97049;-73
2022/05/13 22:12:57;;;;;;;2.63;1.90;;;19.80;92.00;;;19.97;45.35;101643.66;6037271;22;99435;-73
2022/05/13 22:15:23;;;;;;;2.07;1.83;;;19.80;92.00;;;19.97;45.10;101636.47;6090022;22;97277;-73
2022/05/13 22:17:48;;;;;;;3.57;2.20;;;19.80;92.00;;;19.96;45.28;101642.75;6067727;22;112671;-73
2022/05/13 22:20:15;;;;;;;2.10;1.87;;;19.80;92.00;;;19.95;45.21;101645.53;6087736;22;98689;-73
2022/05/13 22:22:41;;;;;;;2.73;1.90;;;19.80;92.20;;;19.96;45.28;101649.94;6092139;22;99131;-73
2022/05/13 22:25:08;;;;;;;3.13;2.00;;;19.80;92.10;;;19.98;45.29;101645.38;6087929;22;96939;-73
2022/05/13 22:27:34;;;;;;;3.37;1.80;;;19.80;92.00;;;19.99;45.16;101652.44;6071001;22;96936;-73
2022/05/13 22:30:01;;;;;;;2.30;1.90;;;19.80;92.00;;;19.99;45.07;101652.44;6090456;22;96952;-73
2022/05/13 22:32:27;;;;;;;1.73;1.63;;;19.80;91.90;;;19.98;45.36;101645.38;6042338;23;97600;-73
2022/05/13 22:34:53;;;;;;;3.27;1.70;;;19.90;92.00;;;19.97;45.18;101649.00;6090773;22;125810;-73
2022/05/13 22:37:18;;;;;;;3.33;1.93;;;19.80;92.00;;;19.97;45.14;101649.00;6064424;22;97302;-73
2022/05/13 22:39:44;;;;;;;3.40;2.23;;;19.80;92.10;;;19.94;45.15;101650.03;6069949;23;96673;-73
2022/05/13 22:42:10;;;;;;;2.03;1.70;;;19.80;92.00;;;19.89;45.58;101652.97;6086987;22;96904;-73
2022/05/13 22:44:36;;;;;;;3.23;2.00;;;19.70;92.30;;;19.91;45.23;101648.41;6068264;22;122266;-73
2022/05/13 22:47:02;;;;;;;2.10;1.90;;;19.80;92.20;;;19.94;45.24;101646.47;6065432;22;97139;-73
2022/05/13 22:49:27;;;;;;;3.07;1.87;;;19.80;92.20;;;19.94;45.43;101649.16;6068366;23;96690;-73
2022/05/13 22:51:53;;;;;;;2.23;1.83;;;19.80;92.10;;;19.94;45.43;101649.16;6069108;22;118023;-73
2022/05/13 22:54:19;;;;;;;3.07;2.03;;;19.80;92.00;;;19.92;45.35;101652.78;6063020;22;117142;-73
2022/05/13 22:56:45;;;;;;;2.43;1.90;;;19.80;92.20;;;19.92;45.42;101647.44;6042077;23;112488;-73
2022/05/13 22:59:13;;;;;;;2.17;1.73;;;19.80;92.20;;;19.92;45.28;101644.75;6088801;22;96839;-73
2022/05/13 23:01:42;;;;;;;3.37;1.97;;;19.80;92.10;;;19.91;45.52;101645.72;6091796;22;97556;-73
2022/05/13 23:04:09;;;;;;;2.23;1.80;;;19.80;92.20;;;19.91;45.46;101644.84;6089042;22;98323;-73
2022/05/13 23:12:04;;;;;;;4.47;2.30;;;19.60;92.30;;;19.82;45.50;101645.41;6066628;22;97090;-73
2022/05/13 23:14:31;;;;;;;2.00;1.70;;;19.60;92.50;;;19.74;45.76;101648.53;6069131;22;98420;-73
2022/05/13 23:16:57;;;;;;;3.40;2.30;;;19.50;92.70;;;19.72;45.88;101654.94;6067030;22;97391;-74
2022/05/13 23:19:23;;;;;;;2.97;1.90;;;19.50;92.60;;;19.68;46.01;101654.25;6072029;22;96948;-73
2022/05/13 23:21:48;;;;;;;6.70;3.93;;;19.40;92.90;;;19.64;45.86;101647.31;6066876;23;99929;-73
2022/05/13 23:24:16;;;;;;;3.10;1.90;;;19.40;92.90;;;19.64;46.03;101652.69;6088981;22;96557;-73
2022/05/13 23:26:42;;;;;;;3.63;2.00;;;19.30;93.10;;;19.64;45.99;101651.81;6071444;22;97428;-73
2022/05/13 23:29:09;;;;;;;2.70;1.80;;;19.30;93.10;;;19.62;46.12;101657.25;6088799;22;97372;-73
2022/05/13 23:31:36;;;;;;;2.67;2.00;;;19.30;93.20;;;19.61;46.22;101648.38;6068884;22;103692;-73
2022/05/13 23:34:02;;;;;;;7.57;4.47;;;19.40;93.10;;;19.61;46.26;101658.22;6065202;22;97504;-73
2022/05/13 23:36:29;;;;;;;5.00;2.47;;;19.40;92.90;;;19.60;46.36;101661.84;6068502;23;97088;-73
2022/05/13 23:38:56;;;;;;;2.00;1.80;;;19.30;93.20;;;19.59;46.32;101655.63;6070152;22;97250;-74
2022/05/13 23:41:23;;;;;;;2.90;1.73;;;19.30;93.60;;;19.59;46.42;101660.97;6018010;23;100690;-73
2022/05/13 23:43:50;;;;;;;3.80;2.23;;;19.30;93.20;;;19.58;46.28;101659.25;6091894;22;98439;-73
2022/05/13 23:46:16;;;;;;;3.07;1.73;;;19.30;93.10;;;19.57;46.49;101654.00;6039770;22;96708;-73
2022/05/13 23:48:42;;;;;;;3.27;2.23;;;19.30;93.20;;;19.53;46.40;101658.63;6093053;22;110500;-73
2022/05/13 23:51:09;;;;;;;2.07;1.73;;;19.20;93.40;;;19.52;46.55;101664.06;6088254;22;98163;-73
2022/05/13 23:56:27;;;;;;;3.57;2.00;;;19.20;93.30;;;19.55;46.46;101663.94;6066371;22;96716;-73
2022/05/13 23:58:54;;;;;;;3.00;2.30;;;19.30;93.40;;;19.56;46.27;101660.31;6045673;23;97188;-73
